Partly cloudy
Partly cloudy
Partly cloudy and few cirrus
Partly cloudy and few cirrus
Partly cloudy and cirrus
Partly cloudy and cirrus
Partly cloudy and cirrus
Partly cloudy and cirrus
Partly cloudy and cirrus
(°C)
21°
21°
22°
22°
22°
22°
23°
23°
23°
23°
24°
24°
24°
24°
24°
24°
24°
24°
(°C)
21°
22°
22°
23°
24°
25°
26°
26°
25°
NNE
NNE
NNE
NNE
NNE
NNE
NNE
NNE
NNE
(km/h)
7-32
8-37
8-39
8-34
8-34
8-34
8-35
8-34
8-35
(mm)
0
0
0
0
0
0
0
0
0
(%)
0
0
0
0
0
0
0
0
0

Sun elevation

/ 18.7°
sun-icon
UV 10
06:56
20:54
Waxing crescent moon (82°)
13:18
01:39

METAR for Caleta de Fuste (GCFV)

Time Conditions Temperature/
Dewpoint
Wind Visibility Weather Clouds Pressure Change Raw
VFR 20°C / 14°C 20º 18kt 9700m - Scattered Clouds 3000ft 1019 - GCFV 130700Z 02018KT 9999 SCT030 20/14 Q1019
VFR 20°C / 14°C 20º 15kt 9700m - Scattered Clouds 3000ft 1019 - GCFV 130630Z 02015KT 9999 SCT030 20/14 Q1019
VFR 20°C / 13°C 20º 19kt 9700m - Few Clouds 2500ft
Broken Clouds 3500ft
1019 - GCFV 130600Z 02019KT 9999 FEW025 BKN035 20/13 Q1019
VFR 20°C / 14°C 30º 15kt 9700m - Few Clouds 2500ft
Broken Clouds 3500ft
1019 - GCFV 130530Z 03015KT 9999 FEW025 BKN035 20/14 Q1019
VFR 20°C / 13°C 30º 13kt 9700m - Few Clouds 2500ft
Broken Clouds 3500ft
1020 - GCFV 130500Z 03013KT 9999 FEW025 BKN035 20/13 Q1020
MVFR 20°C / 14°C 20º 15kt 9700m - Broken Clouds 2800ft
Overcast 3500ft
1020 - GCFV 130430Z AUTO 02015KT 9999 BKN028 OVC035 20/14 Q1020
MVFR 20°C / 13°C 360º 11kt 9700m - Overcast 2800ft 1020 - GCFV 130400Z AUTO 36011KT 9999 OVC028 20/13 Q1020
MVFR 20°C / 13°C 360º 11kt 9700m - Overcast 3000ft 1019 - GCFV 130330Z AUTO 36011KT 9999 OVC030 20/13 Q1019
VFR 20°C / 13°C 10º 14kt 9700m - Overcast 3100ft 1019 - GCFV 130300Z AUTO 01014KT 9999 OVC031 20/13 Q1019
VFR 20°C / 14°C 20º 16kt 9700m - Overcast 3100ft 1019 - GCFV 130230Z AUTO 02016KT 9999 OVC031 20/14 Q1019
MVFR 20°C / 14°C 20º variable 350º to 050º 13kt Gust 23kt 9700m - Overcast 2800ft 1020 - GCFV 130200Z AUTO 02013G23KT 350V050 9999 OVC028 20/14 Q1020
VFR 20°C / 13°C 360º 11kt 9700m - Overcast 3100ft 1020 - GCFV 130130Z AUTO 36011KT 9999 OVC031 20/13 Q1020
VFR 20°C / 14°C 20º variable 350º to 050º 13kt 9700m - Overcast 3100ft 1020 - GCFV 130100Z AUTO 02013KT 350V050 9999 OVC031 20/14 Q1020
VFR 20°C / 14°C 10º 14kt 9700m - Broken Clouds 3100ft 1020 - GCFV 130030Z AUTO 01014KT 9999 BKN031 20/14 Q1020
MVFR 20°C / 14°C 30º 16kt 9700m - Overcast 3000ft 1020 - GCFV 130000Z AUTO 03016KT 9999 OVC030 20/14 Q1020
VFR 21°C / 14°C 10º 12kt 9700m - Overcast 3100ft 1020 - GCFV 122330Z AUTO 01012KT 9999 OVC031 21/14 Q1020
VFR 20°C / 14°C 30º 15kt 9700m - Broken Clouds 3100ft 1021 - GCFV 122300Z AUTO 03015KT 9999 BKN031 20/14 Q1021
VFR 20°C / 14°C 20º 17kt 9700m - Broken Clouds 3200ft 1020 - GCFV 122230Z AUTO 02017KT 9999 BKN032 20/14 Q1020
VFR 21°C / 15°C 20º 15kt 9700m - Few Clouds 2500ft
Scattered Clouds 3000ft
1020 - GCFV 122200Z 02015KT 9999 FEW025 SCT030 21/15 Q1020
VFR 21°C / 14°C 20º 16kt 9700m - Scattered Clouds 3000ft 1020 - GCFV 122130Z 02016KT 9999 SCT030 21/14 Q1020
VFR 21°C / 15°C 30º 16kt 9700m - Few Clouds 3000ft 1020 - GCFV 122100Z 03016KT 9999 FEW030 21/15 Q1020
VFR 21°C / 15°C 20º 16kt 9700m - Scattered Clouds 3200ft 1020 - GCFV 122030Z 02016KT 9999 SCT032 21/15 Q1020
VFR 21°C / 14°C 10º 17kt 9700m - Broken Clouds 3200ft 1020 - GCFV 122000Z 01017KT 9999 BKN032 21/14 Q1020
VFR 22°C / 13°C 10º 19kt 9700m - Broken Clouds 3500ft 1019 - GCFV 121930Z 01019KT 9999 BKN035 22/13 Q1019

VFR

20°C / 14°C

[More]
Wind 20º 18kt
Visibility 9700m
Weather -
Clouds Scattered Clouds 3000ft
Pressure 1019
Change -
Raw GCFV 130700Z 02018KT 9999 SCT030 20/14 Q1019

VFR

20°C / 14°C

[More]
Wind 20º 15kt
Visibility 9700m
Weather -
Clouds Scattered Clouds 3000ft
Pressure 1019
Change -
Raw GCFV 130630Z 02015KT 9999 SCT030 20/14 Q1019

VFR

20°C / 13°C

[More]
Wind 20º 19kt
Visibility 9700m
Weather -
Clouds Few Clouds 2500ft
Broken Clouds 3500ft
Pressure 1019
Change -
Raw GCFV 130600Z 02019KT 9999 FEW025 BKN035 20/13 Q1019

VFR

20°C / 14°C

[More]
Wind 30º 15kt
Visibility 9700m
Weather -
Clouds Few Clouds 2500ft
Broken Clouds 3500ft
Pressure 1019
Change -
Raw GCFV 130530Z 03015KT 9999 FEW025 BKN035 20/14 Q1019

VFR

20°C / 13°C

[More]
Wind 30º 13kt
Visibility 9700m
Weather -
Clouds Few Clouds 2500ft
Broken Clouds 3500ft
Pressure 1020
Change -
Raw GCFV 130500Z 03013KT 9999 FEW025 BKN035 20/13 Q1020

MVFR

20°C / 14°C

[More]
Wind 20º 15kt
Visibility 9700m
Weather -
Clouds Broken Clouds 2800ft
Overcast 3500ft
Pressure 1020
Change -
Raw GCFV 130430Z AUTO 02015KT 9999 BKN028 OVC035 20/14 Q1020

MVFR

20°C / 13°C

[More]
Wind 360º 11kt
Visibility 9700m
Weather -
Clouds Overcast 2800ft
Pressure 1020
Change -
Raw GCFV 130400Z AUTO 36011KT 9999 OVC028 20/13 Q1020

MVFR

20°C / 13°C

[More]
Wind 360º 11kt
Visibility 9700m
Weather -
Clouds Overcast 3000ft
Pressure 1019
Change -
Raw GCFV 130330Z AUTO 36011KT 9999 OVC030 20/13 Q1019

VFR

20°C / 13°C

[More]
Wind 10º 14kt
Visibility 9700m
Weather -
Clouds Overcast 3100ft
Pressure 1019
Change -
Raw GCFV 130300Z AUTO 01014KT 9999 OVC031 20/13 Q1019

VFR

20°C / 14°C

[More]
Wind 20º 16kt
Visibility 9700m
Weather -
Clouds Overcast 3100ft
Pressure 1019
Change -
Raw GCFV 130230Z AUTO 02016KT 9999 OVC031 20/14 Q1019

MVFR

20°C / 14°C

[More]
Wind 20º variable 350º to 050º 13kt Gust 23kt
Visibility 9700m
Weather -
Clouds Overcast 2800ft
Pressure 1020
Change -
Raw GCFV 130200Z AUTO 02013G23KT 350V050 9999 OVC028 20/14 Q1020

VFR

20°C / 13°C

[More]
Wind 360º 11kt
Visibility 9700m
Weather -
Clouds Overcast 3100ft
Pressure 1020
Change -
Raw GCFV 130130Z AUTO 36011KT 9999 OVC031 20/13 Q1020

VFR

20°C / 14°C

[More]
Wind 20º variable 350º to 050º 13kt
Visibility 9700m
Weather -
Clouds Overcast 3100ft
Pressure 1020
Change -
Raw GCFV 130100Z AUTO 02013KT 350V050 9999 OVC031 20/14 Q1020

VFR

20°C / 14°C

[More]
Wind 10º 14kt
Visibility 9700m
Weather -
Clouds Broken Clouds 3100ft
Pressure 1020
Change -
Raw GCFV 130030Z AUTO 01014KT 9999 BKN031 20/14 Q1020

MVFR

20°C / 14°C

[More]
Wind 30º 16kt
Visibility 9700m
Weather -
Clouds Overcast 3000ft
Pressure 1020
Change -
Raw GCFV 130000Z AUTO 03016KT 9999 OVC030 20/14 Q1020

VFR

21°C / 14°C

[More]
Wind 10º 12kt
Visibility 9700m
Weather -
Clouds Overcast 3100ft
Pressure 1020
Change -
Raw GCFV 122330Z AUTO 01012KT 9999 OVC031 21/14 Q1020

VFR

20°C / 14°C

[More]
Wind 30º 15kt
Visibility 9700m
Weather -
Clouds Broken Clouds 3100ft
Pressure 1021
Change -
Raw GCFV 122300Z AUTO 03015KT 9999 BKN031 20/14 Q1021

VFR

20°C / 14°C

[More]
Wind 20º 17kt
Visibility 9700m
Weather -
Clouds Broken Clouds 3200ft
Pressure 1020
Change -
Raw GCFV 122230Z AUTO 02017KT 9999 BKN032 20/14 Q1020

VFR

21°C / 15°C

[More]
Wind 20º 15kt
Visibility 9700m
Weather -
Clouds Few Clouds 2500ft
Scattered Clouds 3000ft
Pressure 1020
Change -
Raw GCFV 122200Z 02015KT 9999 FEW025 SCT030 21/15 Q1020

VFR

21°C / 14°C

[More]
Wind 20º 16kt
Visibility 9700m
Weather -
Clouds Scattered Clouds 3000ft
Pressure 1020
Change -
Raw GCFV 122130Z 02016KT 9999 SCT030 21/14 Q1020

VFR

21°C / 15°C

[More]
Wind 30º 16kt
Visibility 9700m
Weather -
Clouds Few Clouds 3000ft
Pressure 1020
Change -
Raw GCFV 122100Z 03016KT 9999 FEW030 21/15 Q1020

VFR

21°C / 15°C

[More]
Wind 20º 16kt
Visibility 9700m
Weather -
Clouds Scattered Clouds 3200ft
Pressure 1020
Change -
Raw GCFV 122030Z 02016KT 9999 SCT032 21/15 Q1020

VFR

21°C / 14°C

[More]
Wind 10º 17kt
Visibility 9700m
Weather -
Clouds Broken Clouds 3200ft
Pressure 1020
Change -
Raw GCFV 122000Z 01017KT 9999 BKN032 21/14 Q1020

VFR

22°C / 13°C

[More]
Wind 10º 19kt
Visibility 9700m
Weather -
Clouds Broken Clouds 3500ft
Pressure 1019
Change -
Raw GCFV 121930Z 01019KT 9999 BKN035 22/13 Q1019

TAF for Caleta de Fuste (GCFV)

From till


Maximum Temperature 25ºC on . Minimum Temperature 20ºC on .
From till Wind 30º 13kt. Visibility 9700m. Scattered Clouds 3500ft.

Raw: TAF GCFV 130200Z 1303/1403 03013KT 9999 SCT035 TX25/1314Z TN20/1306Z

Radar and precipitation nowcast for Caleta de Fuste

Drizzle
Light
Moderate
Heavy
Very Heavy
Hail

The location marker is placed on Caleta de Fuste. This animation shows the precipitation radar for the selected time range, as well as a 2h forecast. Orange crosses indicate lightning. Data provided by nowcast.de (available in USA, Europe, Australia). Drizzle or light snow fall might be invisible for the radar. Precipitation intensity is colour coded, ranging from turquoise to red.

Current satellite and rain images for Caleta de Fuste, Spain

The location marker is placed on Caleta de Fuste. [More]

The real-time satellite image combines visible light during daytime with infrared radiation during nighttime. At night, the image is not dark as infrared radiation can detect temperature differences. Unfortunately, low clouds and fog are difficult to distinguish from ground temperatures and thus can be almost invisible during the night. Meteosat satellite images for Europe are updated in real-time every 5 minutes. GOES-16/GOES-17 (North & South America) and Himawari (Asia) images update every 10 minutes.

Precipitation is estimated from radar and satellites. Precipitation estimates from satellites are less accurate at night than during daytime.

© 2024 meteoblue, NOAA Satellites GOES-16 and EUMETSAT. Lightning data provided by nowcast.

Back to top
×
Hey there,
seems like you are using an ad blocker.

Advertising is essential to maintain our free website with unique detail and accuracy.

Please whitelist www.meteoblue.com on your ad blocker or consider buying one of our products:

Already have a subscription?
Then please login.